createdAt,value
2019-04-05T00:01:52.011Z,13.00
2019-04-05T00:04:22.932Z,13.20
2019-04-05T00:06:53.621Z,13.00
2019-04-05T00:09:24.452Z,14.03
2019-04-05T00:11:55.032Z,13.00
2019-04-05T00:14:25.531Z,12.97
2019-04-05T00:16:56.091Z,12.87
2019-04-05T00:19:26.691Z,13.50
2019-04-05T00:21:57.471Z,13.13
2019-04-05T00:24:28.061Z,13.13
2019-04-05T00:26:58.641Z,13.20
2019-04-05T00:29:29.286Z,13.10
2019-04-05T00:31:59.971Z,14.53
2019-04-05T00:34:30.632Z,13.03
2019-04-05T00:37:01.160Z,13.43
2019-04-05T00:39:31.782Z,13.53
2019-04-05T00:42:02.611Z,14.37
2019-04-05T00:44:33.128Z,12.77
2019-04-05T00:47:03.812Z,14.73
2019-04-05T00:49:34.436Z,14.10
2019-04-05T00:52:05.150Z,13.77
2019-04-05T00:54:35.652Z,14.07
2019-04-05T00:57:06.305Z,14.27
2019-04-05T00:59:36.914Z,15.00
2019-04-05T01:02:07.930Z,14.73
2019-04-05T01:04:38.551Z,14.70
2019-04-05T01:07:09.140Z,14.63
2019-04-05T01:09:39.826Z,14.60
2019-04-05T01:12:10.441Z,13.93
2019-04-05T01:14:41.064Z,16.03
2019-04-05T01:17:24.205Z,15.50
2019-04-05T01:19:47.481Z,15.57
2019-04-05T01:22:19.156Z,14.63
2019-04-05T01:24:49.740Z,16.60
2019-04-05T01:27:21.015Z,16.03
2019-04-05T01:29:51.601Z,15.50
2019-04-05T01:32:22.130Z,15.67
2019-04-05T01:34:52.734Z,16.53
2019-04-05T01:37:23.405Z,16.37
2019-04-05T01:39:54.033Z,15.93
2019-04-05T01:42:24.994Z,16.63
2019-04-05T01:44:56.266Z,15.80
2019-04-05T01:47:26.941Z,16.13
2019-04-05T01:49:57.567Z,16.00
2019-04-05T01:52:28.131Z,16.57
2019-04-05T01:54:58.731Z,16.47
2019-04-05T01:57:29.277Z,15.73
2019-04-05T01:59:59.796Z,16.30
2019-04-05T02:02:30.411Z,16.30
2019-04-05T02:05:01.021Z,16.40
2019-04-05T02:07:31.874Z,16.40
2019-04-05T02:10:02.540Z,17.07
2019-04-05T02:12:33.164Z,14.63
2019-04-05T02:15:03.893Z,16.60
2019-04-05T02:17:35.930Z,17.07
2019-04-05T02:20:07.666Z,16.60
2019-04-05T02:22:38.308Z,16.97
2019-04-05T02:25:09.061Z,15.97
2019-04-05T02:27:39.578Z,15.27
2019-04-05T02:30:10.603Z,16.03
2019-04-05T02:32:41.253Z,16.47
2019-04-05T02:35:12.562Z,17.17
2019-04-05T02:37:43.334Z,16.77
2019-04-05T02:40:16.507Z,17.23
2019-04-05T02:42:49.026Z,16.60
2019-04-05T02:45:20.443Z,16.77
2019-04-05T02:47:55.803Z,16.40
2019-04-05T02:50:29.372Z,16.13
2019-04-05T02:53:04.946Z,16.73
2019-04-05T02:55:37.262Z,16.43
2019-04-05T02:58:10.101Z,16.83
2019-04-05T03:00:41.370Z,17.10
2019-04-05T03:03:12.346Z,16.10
2019-04-05T03:05:43.403Z,16.67
2019-04-05T03:08:14.367Z,16.07
2019-04-05T03:11:10.121Z,15.73
2019-04-05T03:13:53.256Z,16.90
2019-04-05T03:16:40.723Z,17.23
2019-04-05T03:19:14.935Z,16.67
2019-04-05T03:21:52.016Z,16.67
2019-04-05T03:24:29.554Z,16.50
2019-04-05T03:27:07.203Z,16.53
2019-04-05T03:29:41.067Z,15.90
2019-04-05T03:32:12.099Z,16.23
2019-04-05T03:34:42.978Z,16.23
2019-04-05T03:37:14.042Z,16.50
2019-04-05T03:39:45.122Z,16.07
2019-04-05T03:42:16.434Z,16.77
2019-04-05T03:44:47.178Z,16.67
2019-04-05T03:47:17.903Z,16.03
2019-04-05T03:49:48.470Z,16.00
2019-04-05T03:52:19.343Z,16.50
2019-04-05T03:54:50.482Z,17.13
2019-04-05T03:57:21.161Z,16.83
2019-04-05T03:59:51.792Z,17.43
2019-04-05T04:02:23.667Z,16.83
2019-04-05T04:04:54.492Z,16.53
2019-04-05T04:07:25.427Z,16.27
2019-04-05T04:09:56.052Z,17.10
2019-04-05T04:12:27.036Z,17.13
2019-04-05T04:15:14.077Z,16.40
2019-04-05T04:17:47.242Z,17.00
2019-04-05T04:20:45.601Z,16.87
2019-04-05T04:23:16.707Z,17.07
2019-04-05T04:25:48.087Z,17.40
2019-04-05T04:28:19.128Z,17.40
2019-04-05T04:30:49.870Z,18.07
2019-04-05T04:33:21.126Z,16.13
2019-04-05T04:35:53.445Z,17.87
2019-04-05T04:38:24.949Z,17.57
2019-04-05T04:40:56.636Z,19.80
2019-04-05T04:43:28.539Z,17.63
2019-04-05T04:45:59.481Z,18.10
2019-04-05T04:48:31.203Z,18.43
2019-04-05T04:51:02.727Z,18.07
2019-04-05T04:53:34.436Z,17.83
2019-04-05T04:56:05.264Z,18.17
2019-04-05T04:58:36.626Z,19.20
2019-04-05T05:01:07.525Z,17.70
2019-04-05T05:03:38.741Z,19.37
2019-04-05T05:06:09.704Z,19.77
2019-04-05T05:08:40.813Z,18.43
2019-04-05T05:11:14.793Z,18.43
2019-04-05T05:13:44.936Z,18.93
2019-04-05T05:16:15.916Z,19.07
2019-04-05T05:18:46.632Z,18.57
2019-04-05T05:21:17.530Z,18.63
2019-04-05T05:23:48.387Z,18.27
2019-04-05T05:26:19.481Z,19.03
2019-04-05T05:28:50.377Z,19.07
2019-04-05T05:31:21.427Z,18.27
2019-04-05T05:34:07.380Z,19.37
2019-04-05T05:36:39.529Z,18.50
2019-04-05T05:39:10.832Z,18.53
2019-04-05T05:41:41.955Z,18.97
2019-04-05T05:44:12.713Z,19.63
2019-04-05T05:46:43.528Z,19.97
2019-04-05T05:49:20.431Z,18.00
2019-04-05T05:51:51.632Z,19.03
2019-04-05T05:54:22.391Z,19.20
2019-04-05T05:56:53.281Z,18.50
2019-04-05T05:59:24.091Z,18.63
2019-04-05T06:01:54.921Z,18.97
2019-04-05T06:04:25.675Z,18.63
2019-04-05T06:06:56.542Z,18.27
2019-04-05T06:09:32.413Z,18.40
2019-04-05T06:12:08.201Z,18.10
2019-04-05T06:14:42.610Z,19.03
2019-04-05T06:17:13.554Z,18.87
2019-04-05T06:19:44.124Z,19.33
2019-04-05T06:22:14.878Z,18.07
2019-04-05T06:24:45.813Z,18.80
2019-04-05T06:27:16.416Z,18.63
2019-04-05T06:29:47.043Z,18.90
2019-04-05T06:32:17.767Z,19.43
2019-04-05T06:34:48.406Z,19.03
2019-04-05T06:37:19.555Z,19.03
2019-04-05T06:39:50.516Z,19.57
2019-04-05T06:42:21.461Z,19.50
2019-04-05T06:44:52.043Z,19.13
2019-04-05T06:47:22.747Z,19.63
2019-04-05T06:49:53.443Z,18.00
2019-04-05T06:52:24.041Z,19.33
2019-04-05T06:54:54.718Z,18.70
2019-04-05T06:57:25.944Z,19.30
2019-04-05T06:59:56.745Z,18.80
2019-04-05T07:02:27.510Z,19.13
2019-04-05T07:04:58.143Z,18.47
2019-04-05T07:07:29.157Z,17.97
2019-04-05T07:10:00.427Z,19.10
2019-04-05T07:12:31.042Z,18.13
2019-04-05T07:15:01.672Z,19.23
2019-04-05T07:17:32.786Z,18.60
2019-04-05T07:20:03.333Z,19.27
2019-04-05T07:22:39.083Z,18.27
2019-04-05T07:25:07.223Z,18.50
2019-04-05T07:27:37.938Z,18.47
2019-04-05T07:30:08.928Z,18.73
2019-04-05T07:32:41.941Z,18.17
2019-04-05T07:35:12.845Z,19.00
2019-04-05T07:37:43.882Z,18.47
2019-04-05T07:40:14.933Z,18.83
2019-04-05T07:42:45.711Z,17.70
2019-04-05T07:45:16.627Z,18.30
2019-04-05T07:47:47.246Z,17.20
2019-04-05T07:50:18.290Z,17.20
2019-04-05T07:52:49.121Z,17.17
2019-04-05T07:55:19.833Z,16.20
2019-04-05T07:57:50.541Z,16.50
2019-04-05T08:00:59.540Z,15.40
2019-04-05T08:03:30.343Z,13.93
2019-04-05T08:06:01.101Z,15.00
2019-04-05T08:09:08.722Z,14.50
2019-04-05T08:11:42.533Z,13.00
2019-04-05T08:14:17.739Z,12.50
2019-04-05T08:16:46.965Z,11.63
2019-04-05T08:19:17.589Z,11.20
2019-04-05T08:21:48.325Z,11.00
2019-04-05T08:24:19.021Z,10.90
2019-04-05T08:26:50.286Z,10.40
2019-04-05T08:29:21.195Z,11.00
2019-04-05T08:31:51.852Z,10.20
2019-04-05T08:34:22.502Z,10.20
2019-04-05T08:36:53.337Z,9.83
2019-04-05T08:39:24.220Z,9.57
2019-04-05T08:41:55.532Z,10.03
2019-04-05T08:44:26.086Z,10.27
2019-04-05T08:46:56.704Z,10.03
2019-04-05T08:49:27.456Z,10.07
2019-04-05T08:51:57.975Z,9.77
2019-04-05T08:54:32.701Z,10.53
2019-04-05T08:57:01.589Z,9.57
2019-04-05T08:59:32.142Z,9.80
2019-04-05T09:02:02.946Z,9.43
2019-04-05T09:04:34.637Z,9.13
2019-04-05T09:07:05.521Z,9.30
2019-04-05T09:09:36.125Z,10.17
2019-04-05T09:12:06.958Z,9.80
2019-04-05T09:14:37.692Z,9.40
2019-04-05T09:17:08.433Z,9.90
2019-04-05T09:19:38.931Z,9.33
2019-04-05T09:22:09.634Z,9.20
2019-04-05T09:24:40.151Z,10.20
2019-04-05T09:27:10.862Z,9.77
2019-04-05T09:29:42.434Z,8.90
2019-04-05T09:32:13.035Z,7.90
2019-04-05T09:34:43.727Z,8.63
2019-04-05T09:37:14.253Z,8.20
2019-04-05T09:39:44.957Z,8.43
2019-04-05T09:42:15.743Z,7.60
2019-04-05T09:44:46.277Z,8.67
2019-04-05T09:47:16.976Z,7.93
2019-04-05T09:49:47.594Z,6.97
2019-04-05T09:52:18.409Z,8.03
2019-04-05T09:54:49.360Z,7.70
2019-04-05T09:57:20.219Z,8.67
2019-04-05T09:59:50.911Z,7.73
2019-04-05T10:02:21.691Z,8.03
2019-04-05T10:04:52.392Z,8.13
2019-04-05T10:07:23.062Z,8.10
2019-04-05T10:09:53.845Z,8.07
2019-04-05T10:12:24.466Z,9.13
2019-04-05T10:14:55.162Z,8.00
2019-04-05T10:17:25.612Z,8.37
2019-04-05T10:19:56.221Z,7.77
2019-04-05T10:22:26.897Z,9.23
2019-04-05T10:24:57.452Z,9.10
2019-04-05T10:27:28.090Z,6.97
2019-04-05T10:29:58.695Z,8.40
2019-04-05T10:32:29.353Z,8.10
2019-04-05T10:34:59.930Z,8.10
2019-04-05T10:37:30.726Z,7.37
2019-04-05T10:40:01.568Z,8.60
2019-04-05T10:42:36.883Z,7.93
2019-04-05T10:45:11.866Z,8.20
2019-04-05T10:47:42.505Z,8.70
2019-04-05T10:50:14.826Z,9.43
2019-04-05T10:52:45.436Z,8.10
2019-04-05T10:55:17.109Z,8.60
2019-04-05T10:57:47.708Z,8.73
2019-04-05T11:00:19.850Z,7.67
2019-04-05T11:02:50.538Z,8.07
2019-04-05T11:05:21.181Z,7.30
2019-04-05T11:07:51.998Z,7.83
2019-04-05T11:10:22.794Z,6.90
2019-04-05T11:12:53.414Z,7.00
2019-04-05T11:15:24.110Z,6.37
2019-04-05T11:17:54.873Z,6.53
2019-04-05T11:20:25.936Z,6.03
2019-04-05T11:22:56.716Z,6.80
2019-04-05T11:25:27.420Z,6.10
2019-04-05T11:27:58.511Z,6.07
2019-04-05T11:30:43.543Z,5.50
2019-04-05T11:33:14.809Z,5.60
2019-04-05T11:35:45.915Z,4.63
2019-04-05T11:38:17.568Z,4.97
2019-04-05T11:40:48.735Z,5.00
2019-04-05T11:43:20.500Z,6.03
2019-04-05T11:45:52.041Z,5.10
2019-04-05T11:48:22.833Z,5.57
2019-04-05T11:50:53.694Z,5.10
2019-04-05T11:53:24.482Z,4.90
2019-04-05T11:55:55.436Z,4.13
2019-04-05T11:58:26.015Z,4.80
2019-04-05T12:01:02.369Z,4.70
2019-04-05T12:03:33.151Z,6.57
2019-04-05T12:06:04.099Z,5.50
2019-04-05T12:08:34.862Z,5.30
2019-04-05T12:11:05.666Z,5.87
2019-04-05T12:13:36.292Z,5.60
2019-04-05T12:16:10.288Z,5.50
2019-04-05T12:18:39.355Z,5.47
2019-04-05T12:21:09.958Z,5.77
2019-04-05T12:23:40.567Z,6.20
2019-04-05T12:26:11.290Z,5.60
2019-04-05T12:28:41.865Z,5.23
2019-04-05T12:31:12.500Z,5.27
2019-04-05T12:33:42.990Z,5.37
2019-04-05T12:36:13.931Z,5.30
2019-04-05T12:38:44.774Z,5.33
2019-04-05T12:41:18.129Z,4.97
2019-04-05T12:43:50.691Z,5.47
2019-04-05T12:46:20.065Z,5.23
2019-04-05T12:48:50.733Z,5.10
2019-04-05T12:51:21.373Z,4.60
2019-04-05T12:53:52.041Z,5.00
2019-04-05T12:56:24.381Z,4.87
2019-04-05T12:58:55.976Z,5.23
2019-04-05T13:01:27.335Z,5.00
2019-04-05T13:03:58.805Z,5.20
2019-04-05T13:06:29.580Z,4.20
2019-04-05T13:09:00.161Z,4.93
2019-04-05T13:11:30.865Z,5.00
2019-04-05T13:14:01.513Z,5.07
2019-04-05T13:16:32.033Z,4.90
2019-04-05T13:19:02.821Z,4.50
2019-04-05T13:21:33.454Z,4.70
2019-04-05T13:24:06.878Z,5.40
2019-04-05T13:26:37.048Z,4.97
2019-04-05T13:29:07.890Z,4.83
2019-04-05T13:31:38.504Z,5.10
2019-04-05T13:34:09.302Z,5.83
2019-04-05T13:36:39.866Z,5.80
2019-04-05T13:39:11.052Z,5.57
2019-04-05T13:41:41.632Z,5.63
2019-04-05T13:44:12.272Z,5.07
2019-04-05T13:46:43.106Z,5.63
2019-04-05T13:49:13.961Z,5.73
2019-04-05T13:51:44.626Z,5.67
2019-04-05T13:54:15.296Z,6.03
2019-04-05T13:56:49.086Z,4.60
2019-04-05T13:59:19.771Z,6.30
2019-04-05T14:01:51.522Z,5.10
2019-04-05T14:04:22.313Z,5.40
2019-04-05T14:06:54.201Z,5.40
2019-04-05T14:09:25.191Z,5.50
2019-04-05T14:11:55.990Z,6.30
2019-04-05T14:14:28.380Z,5.67
2019-04-05T14:16:59.126Z,5.73
2019-04-05T14:19:30.127Z,6.30
2019-04-05T14:22:08.436Z,5.77
2019-04-05T14:24:33.367Z,5.80
2019-04-05T14:27:04.193Z,7.57
2019-04-05T14:29:35.209Z,7.90
2019-04-05T14:32:19.862Z,7.87
2019-04-05T14:34:38.516Z,7.70
2019-04-05T14:37:09.675Z,7.23
2019-04-05T14:39:40.221Z,8.10
2019-04-05T14:42:14.423Z,7.17
2019-04-05T14:44:43.421Z,7.90
2019-04-05T14:47:14.135Z,6.97
2019-04-05T14:49:45.041Z,7.50
2019-04-05T14:52:16.027Z,7.43
2019-04-05T14:54:46.771Z,7.43
2019-04-05T14:57:17.516Z,8.40
2019-04-05T14:59:48.409Z,8.53
2019-04-05T15:02:19.152Z,8.00
2019-04-05T15:04:49.857Z,8.30
2019-04-05T15:07:20.852Z,9.27
2019-04-05T15:09:54.660Z,8.77
2019-04-05T15:12:28.893Z,8.50
2019-04-05T15:14:57.130Z,9.07
2019-04-05T15:17:27.821Z,9.00
2019-04-05T15:19:58.496Z,8.73
2019-04-05T15:22:29.266Z,9.20
2019-04-05T15:25:01.022Z,8.13
2019-04-05T15:27:32.111Z,9.00
2019-04-05T15:30:02.920Z,8.83
2019-04-05T15:32:33.931Z,8.53
2019-04-05T15:35:05.212Z,9.67
2019-04-05T15:37:37.454Z,9.40
2019-04-05T15:40:09.346Z,9.17
2019-04-05T15:42:40.030Z,9.00
2019-04-05T15:45:15.728Z,8.77
2019-04-05T15:47:43.961Z,8.83
2019-04-05T15:50:14.890Z,9.60
2019-04-05T15:52:45.841Z,9.00
2019-04-05T15:55:16.622Z,8.93
2019-04-05T15:57:47.420Z,9.93
2019-04-05T16:00:25.840Z,8.80
2019-04-05T16:02:55.626Z,9.50
2019-04-05T16:05:26.371Z,9.10
2019-04-05T16:07:57.033Z,8.50
2019-04-05T16:10:27.759Z,8.63
2019-04-05T16:12:58.690Z,8.70
2019-04-05T16:15:29.545Z,8.27
2019-04-05T16:18:00.321Z,8.33
2019-04-05T16:20:31.041Z,8.40
2019-04-05T16:23:01.851Z,8.07
2019-04-05T16:25:32.522Z,8.10
2019-04-05T16:28:03.216Z,8.57
2019-04-05T16:30:33.890Z,8.40
2019-04-05T16:33:04.557Z,8.13
2019-04-05T16:35:35.360Z,8.60
2019-04-05T16:38:06.147Z,8.37
2019-04-05T16:40:37.447Z,8.23
2019-04-05T16:43:08.716Z,9.13
2019-04-05T16:45:39.436Z,9.53
2019-04-05T16:48:10.049Z,9.93
2019-04-05T16:50:42.296Z,9.70
2019-04-05T16:53:13.272Z,8.57
2019-04-05T16:55:44.296Z,8.77
2019-04-05T16:58:17.846Z,8.30
2019-04-05T17:00:48.818Z,8.80
2019-04-05T17:03:19.545Z,8.97
2019-04-05T17:05:52.353Z,8.27
2019-04-05T17:08:23.171Z,8.87
2019-04-05T17:10:53.808Z,8.70
2019-04-05T17:13:24.663Z,8.80
2019-04-05T17:15:55.334Z,9.33
2019-04-05T17:18:26.748Z,9.33
2019-04-05T17:20:58.251Z,8.37
2019-04-05T17:23:29.299Z,10.97
2019-04-05T17:26:01.000Z,14.97
2019-04-05T17:28:31.697Z,14.93
2019-04-05T17:31:10.948Z,16.37
2019-04-05T17:33:42.177Z,16.47
2019-04-05T17:36:18.563Z,16.80
2019-04-05T17:38:49.935Z,14.60
2019-04-05T17:41:23.360Z,14.63
2019-04-05T17:43:55.460Z,14.17
2019-04-05T17:46:26.152Z,13.30
2019-04-05T17:48:56.846Z,13.63
2019-04-05T17:51:27.755Z,11.23
2019-04-05T17:53:58.400Z,11.03
2019-04-05T17:56:29.402Z,11.20
2019-04-05T17:59:00.248Z,10.10
2019-04-05T18:01:32.036Z,9.40
2019-04-05T18:04:02.800Z,9.43
2019-04-05T18:06:34.409Z,10.00
2019-04-05T18:09:06.206Z,11.77
2019-04-05T18:11:37.146Z,10.47
2019-04-05T18:14:08.042Z,10.00
2019-04-05T18:16:42.031Z,9.83
2019-04-05T18:19:12.816Z,8.93
2019-04-05T18:21:43.811Z,8.40
2019-04-05T18:24:17.911Z,8.80
2019-04-05T18:26:48.651Z,7.97
2019-04-05T18:29:19.596Z,8.07
2019-04-05T18:31:50.246Z,8.27
2019-04-05T18:34:22.367Z,8.43
2019-04-05T18:36:53.708Z,8.43
2019-04-05T18:39:26.521Z,9.27
2019-04-05T18:41:58.505Z,8.77
2019-04-05T18:44:31.210Z,8.60
2019-04-05T18:47:07.699Z,8.70
2019-04-05T18:49:41.211Z,8.63
2019-04-05T18:52:19.756Z,8.97
2019-04-05T18:54:50.386Z,8.83
2019-04-05T18:57:25.354Z,8.37
2019-04-05T18:59:57.046Z,8.97
2019-04-05T19:02:29.956Z,8.53
2019-04-05T19:05:04.203Z,7.87
2019-04-05T19:07:38.286Z,9.63
2019-04-05T19:10:09.334Z,9.27
2019-04-05T19:12:40.071Z,9.17
2019-04-05T19:15:13.186Z,9.30
2019-04-05T19:17:43.967Z,7.90
2019-04-05T19:20:15.181Z,8.37
2019-04-05T19:22:50.058Z,8.87
2019-04-05T19:25:21.055Z,10.30
2019-04-05T19:27:55.148Z,9.70
2019-04-05T19:48:50.326Z,11.50
2019-04-05T19:51:21.185Z,11.37
2019-04-05T19:54:01.361Z,11.90
2019-04-05T19:56:31.002Z,12.43
2019-04-05T19:59:03.716Z,12.50
2019-04-05T20:01:36.989Z,12.83
2019-04-05T20:04:10.831Z,12.73
2019-04-05T20:06:45.163Z,12.60
2019-04-05T20:09:19.117Z,11.87
2019-04-05T20:11:51.116Z,12.90
2019-04-05T20:14:22.082Z,12.60
2019-04-05T20:16:56.999Z,13.27
2019-04-05T20:19:34.341Z,13.13
2019-04-05T20:22:05.134Z,12.07
2019-04-05T20:24:39.455Z,13.57
2019-04-05T20:27:14.758Z,14.90
2019-04-05T20:29:46.674Z,14.33
2019-04-05T20:32:17.371Z,15.47
2019-04-05T20:34:48.015Z,14.60
2019-04-05T20:37:18.687Z,13.30
2019-04-05T20:39:49.199Z,13.10
2019-04-05T20:42:19.860Z,12.90
2019-04-05T20:44:50.636Z,12.73
2019-04-05T20:47:21.332Z,13.20
2019-04-05T20:49:51.961Z,13.93
2019-04-05T20:52:22.570Z,14.07
2019-04-05T20:54:53.127Z,14.30
2019-04-05T20:57:28.068Z,14.43
2019-04-05T20:59:58.699Z,15.07
2019-04-05T21:02:29.283Z,14.97
2019-04-05T21:04:59.998Z,14.80
2019-04-05T21:07:31.012Z,14.87
2019-04-05T21:10:01.793Z,15.33
2019-04-05T21:12:32.414Z,15.67
2019-04-05T21:15:03.041Z,16.00
2019-04-05T21:17:33.662Z,15.77
2019-04-05T21:20:04.342Z,15.23
2019-04-05T21:22:35.137Z,13.93
2019-04-05T21:25:06.634Z,14.90
2019-04-05T21:27:39.150Z,14.93
2019-04-05T21:30:10.454Z,14.57
2019-04-05T21:32:41.130Z,14.83
2019-04-05T21:35:11.766Z,15.37
2019-04-05T21:37:42.579Z,15.03
2019-04-05T21:40:13.415Z,15.67
2019-04-05T21:42:44.099Z,15.20
2019-04-05T21:45:15.157Z,15.80
2019-04-05T21:47:45.704Z,14.57
2019-04-05T21:50:16.290Z,14.97
2019-04-05T21:52:47.096Z,15.63
2019-04-05T21:55:17.861Z,14.13
2019-04-05T21:57:48.455Z,15.00
2019-04-05T22:00:26.771Z,15.03
2019-04-05T22:02:57.460Z,15.20
2019-04-05T22:05:28.133Z,15.33
2019-04-05T22:07:58.762Z,15.03
2019-04-05T22:10:29.465Z,14.10
2019-04-05T22:13:00.075Z,14.93
2019-04-05T22:15:30.887Z,14.50
2019-04-05T22:18:01.926Z,15.50
2019-04-05T22:20:32.547Z,14.73
2019-04-05T22:23:03.336Z,15.47
2019-04-05T22:25:34.082Z,15.37
2019-04-05T22:28:04.840Z,14.57
2019-04-05T22:30:37.033Z,15.33
2019-04-05T22:33:07.793Z,16.87
2019-04-05T22:35:38.571Z,14.30
2019-04-05T22:38:09.135Z,15.97
2019-04-05T22:40:39.861Z,15.00
2019-04-05T22:43:10.456Z,14.47
2019-04-05T22:45:41.090Z,16.43
2019-04-05T22:48:11.815Z,15.90
2019-04-05T22:50:42.441Z,15.53
2019-04-05T22:53:13.094Z,14.50
2019-04-05T22:55:43.682Z,15.30
2019-04-05T22:58:14.321Z,16.27
2019-04-05T23:00:44.877Z,16.63
2019-04-05T23:03:15.612Z,16.27
2019-04-05T23:05:46.281Z,17.43
2019-04-05T23:08:17.017Z,16.07
2019-04-05T23:10:47.761Z,15.70
2019-04-05T23:13:18.362Z,16.53
2019-04-05T23:15:48.991Z,16.73
2019-04-05T23:18:19.800Z,16.60
2019-04-05T23:20:50.426Z,16.53
2019-04-05T23:23:21.103Z,16.83
2019-04-05T23:25:52.924Z,17.43
2019-04-05T23:28:23.475Z,16.60
2019-04-05T23:30:54.204Z,17.23
2019-04-05T23:33:24.830Z,17.40
2019-04-05T23:35:55.564Z,16.70
2019-04-05T23:38:26.329Z,16.10
2019-04-05T23:40:57.111Z,16.97
2019-04-05T23:43:27.831Z,17.63
2019-04-05T23:45:58.293Z,17.63
2019-04-05T23:48:28.926Z,16.77
2019-04-05T23:50:59.502Z,15.30
2019-04-05T23:53:30.042Z,17.80
2019-04-05T23:56:00.556Z,18.10
2019-04-05T23:58:37.551Z,17.00
